Time;durP1;ratioP1;P1;durP2;ratioP2;P2;SDS_P1;SDS_P2;PMS_P1;PMS_P2;Temp;Humidity;BMP_temperature;BMP_pressure;BME280_temperature;BME280_humidity;BME280_pressure;Samples;Min_cycle;Max_cycle;Signal;HPM_P1;HPM_P2
2022/11/22 00:00:20;;;;;;;7.07;4.13;;;7.00;99.90;;;;;;5071470;28;20096;-75
2022/11/22 00:02:45;;;;;;;14.23;3.92;;;7.00;99.90;;;;;;5059299;28;20021;-75
2022/11/22 00:05:12;;;;;;;8.82;3.85;;;7.00;99.90;;;;;;5061867;28;20027;-75
2022/11/22 00:07:38;;;;;;;5.78;3.80;;;7.00;99.90;;;;;;5071186;28;20013;-75
2022/11/22 00:10:06;;;;;;;3.92;3.53;;;6.90;99.90;;;;;;5063331;28;20032;-75
2022/11/22 00:12:32;;;;;;;4.18;3.78;;;6.90;99.90;;;;;;5073547;28;20049;-75
2022/11/22 00:14:58;;;;;;;7.78;4.60;;;6.90;99.90;;;;;;5073573;28;20028;-75
2022/11/22 00:17:24;;;;;;;8.35;4.00;;;6.90;99.90;;;;;;5061553;28;20029;-75
2022/11/22 00:19:50;;;;;;;5.70;3.45;;;6.90;99.90;;;;;;5072649;28;20021;-75
2022/11/22 00:22:16;;;;;;;15.65;4.13;;;6.80;99.90;;;;;;5070384;28;20029;-77
2022/11/22 00:24:45;;;;;;;10.38;4.93;;;6.90;99.90;;;;;;5072095;28;20049;-75
2022/11/22 00:27:11;;;;;;;3.13;2.92;;;7.00;99.90;;;;;;5057704;28;20039;-75
2022/11/22 00:29:37;;;;;;;4.40;3.22;;;7.00;99.90;;;;;;5067332;28;20032;-75
2022/11/22 00:32:02;;;;;;;6.30;4.18;;;7.00;99.90;;;;;;5073266;28;20025;-76
2022/11/22 00:34:28;;;;;;;9.27;4.50;;;7.00;99.90;;;;;;5067445;28;20028;-75
2022/11/22 00:36:54;;;;;;;6.47;3.85;;;7.10;99.90;;;;;;5072613;28;20016;-76
2022/11/22 00:39:20;;;;;;;7.40;4.10;;;7.00;99.90;;;;;;5061313;28;20032;-76
2022/11/22 00:41:46;;;;;;;12.40;4.40;;;7.00;99.90;;;;;;5066064;28;20131;-78
2022/11/22 00:44:11;;;;;;;7.97;3.75;;;6.90;99.90;;;;;;5069503;28;20121;-75
2022/11/22 00:46:37;;;;;;;4.68;3.53;;;6.90;99.90;;;;;;5069773;28;20036;-75
2022/11/22 00:49:03;;;;;;;8.98;3.80;;;6.90;99.90;;;;;;5069522;28;20035;-76
2022/11/22 00:51:29;;;;;;;6.30;3.88;;;6.80;99.90;;;;;;5070924;28;20443;-75
2022/11/22 00:53:54;;;;;;;10.60;4.03;;;6.80;99.90;;;;;;5066652;28;20374;-75
2022/11/22 00:56:20;;;;;;;8.32;4.38;;;6.80;99.90;;;;;;5075508;28;20025;-75
2022/11/22 00:58:46;;;;;;;6.90;3.63;;;6.70;99.90;;;;;;5073196;28;20052;-77
2022/11/22 01:01:12;;;;;;;8.68;4.82;;;6.70;99.90;;;;;;5071398;28;20024;-75
2022/11/22 01:03:38;;;;;;;6.95;4.00;;;6.80;99.90;;;;;;5064437;28;20033;-75
2022/11/22 01:06:03;;;;;;;7.78;3.90;;;6.80;99.90;;;;;;5068604;28;20397;-74
2022/11/22 01:08:29;;;;;;;11.77;3.97;;;6.90;99.90;;;;;;5071647;28;20025;-74
2022/11/22 01:11:00;;;;;;;10.30;3.38;;;6.90;99.90;;;;;;5067484;28;20396;-75
2022/11/22 01:13:27;;;;;;;7.15;3.78;;;6.70;99.90;;;;;;5073047;28;20056;-75
2022/11/22 01:15:57;;;;;;;5.57;3.35;;;6.70;99.90;;;;;;5072902;28;20112;-75
2022/11/22 01:18:23;;;;;;;21.27;4.57;;;6.60;99.90;;;;;;5064567;28;20036;-76
2022/11/22 01:20:48;;;;;;;3.20;2.95;;;6.60;99.90;;;;;;5068277;28;20091;-75
2022/11/22 01:23:14;;;;;;;6.22;3.88;;;6.60;99.90;;;;;;5072645;28;20037;-74
2022/11/22 01:25:43;;;;;;;10.38;5.28;;;6.60;99.90;;;;;;5076419;28;20471;-75
2022/11/22 01:28:09;;;;;;;13.77;4.07;;;6.70;99.90;;;;;;5065707;28;20051;-76
2022/11/22 01:30:35;;;;;;;10.73;4.50;;;6.70;99.90;;;;;;5074267;28;20024;-76
2022/11/22 01:33:01;;;;;;;7.63;3.72;;;6.70;99.90;;;;;;5071764;28;20493;-76
2022/11/22 01:35:26;;;;;;;8.98;4.10;;;6.70;99.90;;;;;;5074461;28;20040;-75
2022/11/22 01:37:52;;;;;;;10.00;4.07;;;6.70;99.90;;;;;;5074415;28;20036;-76
2022/11/22 01:40:18;;;;;;;7.30;4.13;;;6.60;99.90;;;;;;5071265;28;20020;-76
2022/11/22 01:42:56;;;;;;;9.43;4.20;;;6.60;99.90;;;;;;5070035;28;20027;-75
2022/11/22 01:45:28;;;;;;;7.20;3.80;;;6.60;99.90;;;;;;5076847;28;20105;-75
2022/11/22 01:48:01;;;;;;;9.27;3.45;;;6.50;99.90;;;;;;5069566;28;20029;-76
2022/11/22 01:50:31;;;;;;;6.07;3.42;;;6.50;99.90;;;;;;5076933;28;20023;-76
2022/11/22 01:53:01;;;;;;;9.67;3.70;;;6.50;99.90;;;;;;5070367;28;20052;-75
2022/11/22 01:55:27;;;;;;;6.25;3.33;;;6.50;99.90;;;;;;5072667;28;20024;-75
2022/11/22 01:57:53;;;;;;;8.60;3.75;;;6.60;99.90;;;;;;5062780;28;20051;-76
2022/11/22 02:00:19;;;;;;;5.88;3.20;;;6.60;99.90;;;;;;5074649;28;20017;-75
2022/11/22 02:02:55;;;;;;;5.10;3.33;;;6.60;99.90;;;;;;5061474;28;20067;-75
2022/11/22 02:05:24;;;;;;;5.38;3.20;;;6.60;99.90;;;;;;5067284;28;20021;-77
2022/11/22 02:08:07;;;;;;;8.40;3.30;;;6.60;99.90;;;;;;5060568;28;20059;-76
2022/11/22 02:10:39;;;;;;;5.78;3.13;;;6.60;99.90;;;;;;5062020;28;20128;-77
2022/11/22 02:13:06;;;;;;;6.97;3.42;;;6.60;99.90;;;;;;5072166;28;20103;-76
2022/11/22 02:15:34;;;;;;;6.22;3.55;;;6.70;99.90;;;;;;5074191;28;20055;-76
2022/11/22 02:18:00;;;;;;;7.82;3.95;;;6.60;99.90;;;;;;5064861;28;20017;-77
2022/11/22 02:20:26;;;;;;;8.18;3.60;;;6.60;99.90;;;;;;5072695;28;20017;-78
2022/11/22 02:23:14;;;;;;;16.17;3.40;;;6.70;99.90;;;;;;5071658;28;20431;-76
2022/11/22 02:25:39;;;;;;;9.02;3.72;;;6.70;99.90;;;;;;5072322;28;20381;-75
2022/11/22 02:28:07;;;;;;;4.10;3.10;;;6.60;99.90;;;;;;5067792;28;20025;-77
2022/11/22 02:30:35;;;;;;;11.32;4.63;;;6.50;99.90;;;;;;5067402;28;20025;-76
2022/11/22 02:33:00;;;;;;;7.10;3.20;;;6.40;99.90;;;;;;5066387;28;20013;-75
2022/11/22 02:35:28;;;;;;;8.02;3.50;;;6.40;99.90;;;;;;5074580;28;20028;-76
2022/11/22 02:37:57;;;;;;;5.93;3.22;;;6.40;99.90;;;;;;5066643;28;20016;-75
2022/11/22 02:40:24;;;;;;;4.20;3.10;;;6.40;99.90;;;;;;5075648;28;20016;-77
2022/11/22 02:42:57;;;;;;;3.45;3.15;;;6.40;99.90;;;;;;5070553;28;20027;-79
2022/11/22 02:45:23;;;;;;;7.43;4.60;;;6.40;99.90;;;;;;5075822;28;20442;-75
2022/11/22 02:47:49;;;;;;;4.65;3.35;;;6.40;99.90;;;;;;5074262;28;20048;-74
2022/11/22 02:50:15;;;;;;;5.50;3.10;;;6.30;99.90;;;;;;5067322;28;20021;-75
2022/11/22 02:52:40;;;;;;;8.73;3.30;;;6.30;99.90;;;;;;5067776;28;20094;-74
2022/11/22 02:55:07;;;;;;;6.38;3.40;;;6.20;99.90;;;;;;5069563;28;20020;-75
2022/11/22 02:57:32;;;;;;;7.75;3.53;;;6.20;99.90;;;;;;5071385;28;20025;-74
2022/11/22 02:59:58;;;;;;;5.50;3.25;;;6.20;99.90;;;;;;5068710;28;20024;-74
2022/11/22 03:02:24;;;;;;;6.53;3.00;;;6.20;99.90;;;;;;5067742;28;21005;-75
2022/11/22 03:04:50;;;;;;;4.78;3.20;;;6.20;99.90;;;;;;5068669;28;20032;-74
2022/11/22 03:07:17;;;;;;;5.47;3.30;;;6.20;99.90;;;;;;5066200;28;20064;-75
2022/11/22 03:09:42;;;;;;;6.65;3.92;;;6.20;99.90;;;;;;5069140;28;20036;-74
2022/11/22 03:12:08;;;;;;;3.20;2.97;;;6.20;99.90;;;;;;5072493;28;20041;-75
2022/11/22 03:14:34;;;;;;;4.00;3.10;;;6.30;99.90;;;;;;5064954;28;20076;-75
2022/11/22 03:17:00;;;;;;;5.70;2.85;;;6.20;99.90;;;;;;5061750;28;20040;-75
2022/11/22 03:19:25;;;;;;;7.50;3.45;;;6.30;99.90;;;;;;5066720;28;20048;-75
2022/11/22 03:21:51;;;;;;;4.13;3.58;;;6.30;99.90;;;;;;5073932;28;20112;-74
2022/11/22 03:24:19;;;;;;;4.32;3.47;;;6.30;99.90;;;;;;5066992;28;20114;-75
2022/11/22 03:26:48;;;;;;;11.27;3.40;;;6.40;99.90;;;;;;5070706;28;20108;-76
2022/11/22 03:29:16;;;;;;;4.78;2.97;;;6.40;99.90;;;;;;5062455;28;20039;-75
2022/11/22 03:31:41;;;;;;;4.30;3.58;;;6.40;99.90;;;;;;5068648;28;20975;-75
2022/11/22 03:34:08;;;;;;;3.00;2.80;;;6.40;99.90;;;;;;5067740;28;20055;-75
2022/11/22 03:36:33;;;;;;;11.75;3.75;;;6.40;99.90;;;;;;5070670;28;20025;-75
2022/11/22 03:38:59;;;;;;;3.75;3.10;;;6.40;99.90;;;;;;5066043;28;20035;-76
2022/11/22 03:41:25;;;;;;;3.63;3.15;;;6.30;99.90;;;;;;5071832;28;20033;-75
2022/11/22 03:43:51;;;;;;;8.85;3.42;;;6.30;99.90;;;;;;5060631;28;20029;-75
2022/11/22 03:46:20;;;;;;;3.45;3.15;;;6.30;99.90;;;;;;5072401;28;20033;-74
2022/11/22 03:48:46;;;;;;;3.75;3.25;;;6.30;99.90;;;;;;5061369;28;20078;-74
2022/11/22 03:51:12;;;;;;;6.13;3.10;;;6.30;99.90;;;;;;5070529;28;20393;-75
2022/11/22 03:53:38;;;;;;;4.32;3.30;;;6.30;99.90;;;;;;5061874;28;20029;-74
2022/11/22 03:56:05;;;;;;;8.40;3.28;;;6.30;99.90;;;;;;5058829;28;20385;-74
2022/11/22 03:58:31;;;;;;;6.25;3.22;;;6.30;99.90;;;;;;5068408;28;20022;-74
2022/11/22 04:00:57;;;;;;;9.10;3.65;;;6.30;99.90;;;;;;5069611;28;20039;-74
2022/11/22 04:03:23;;;;;;;3.67;3.13;;;6.30;99.90;;;;;;5070868;28;20421;-74
2022/11/22 04:05:49;;;;;;;9.57;4.53;;;6.20;99.90;;;;;;5069114;28;20056;-74
2022/11/22 04:08:15;;;;;;;9.02;3.30;;;6.20;99.90;;;;;;5070701;28;20564;-74
2022/11/22 04:10:41;;;;;;;5.70;3.10;;;6.20;99.90;;;;;;5074927;28;20032;-74
2022/11/22 04:13:07;;;;;;;8.00;3.75;;;6.30;99.90;;;;;;5070377;28;20017;-74
2022/11/22 04:15:32;;;;;;;5.22;3.95;;;6.30;99.90;;;;;;5064247;28;20020;-75
2022/11/22 04:17:58;;;;;;;6.93;3.55;;;6.40;99.90;;;;;;5068131;28;20024;-74
2022/11/22 04:23:16;;;;;;;4.40;4.00;;;6.40;99.90;;;;;;5067997;28;20381;-74
2022/11/22 04:25:46;;;;;;;5.35;3.10;;;6.40;99.90;;;;;;5060049;28;20041;-76
2022/11/22 04:28:13;;;;;;;4.03;3.13;;;6.40;99.90;;;;;;5064514;28;20094;-74
2022/11/22 04:33:24;;;;;;;4.55;3.28;;;6.50;99.90;;;;;;5068029;28;20040;-74
2022/11/22 04:35:50;;;;;;;3.10;2.83;;;6.50;99.90;;;;;;5076314;28;20020;-74
2022/11/22 04:38:17;;;;;;;5.97;3.50;;;6.50;99.90;;;;;;5071505;28;20091;-75
2022/11/22 04:40:44;;;;;;;3.90;3.22;;;6.50;99.90;;;;;;5074130;28;20032;-76
2022/11/22 04:46:04;;;;;;;2.95;2.60;;;6.50;99.90;;;;;;5078227;28;20041;-76
2022/11/22 04:48:30;;;;;;;2.88;2.67;;;6.50;99.90;;;;;;5064119;28;20101;-77
2022/11/22 04:53:40;;;;;;;3.05;2.80;;;6.50;99.90;;;;;;5062016;28;20043;-74
2022/11/22 04:56:06;;;;;;;5.28;3.00;;;6.40;99.90;;;;;;5073264;28;20041;-74
2022/11/22 04:58:32;;;;;;;5.72;2.80;;;6.40;99.90;;;;;;5070244;28;20104;-74
2022/11/22 05:00:58;;;;;;;4.10;2.90;;;6.40;99.90;;;;;;5063727;28;20397;-74
2022/11/22 05:03:23;;;;;;;4.70;3.40;;;6.30;99.90;;;;;;5072751;28;20068;-75
2022/11/22 05:05:49;;;;;;;6.15;3.30;;;6.40;99.90;;;;;;5069039;28;20075;-74
2022/11/22 05:08:15;;;;;;;5.07;2.92;;;6.30;99.90;;;;;;5073406;28;20062;-74
2022/11/22 05:10:56;;;;;;;3.40;3.20;;;6.30;99.90;;;;;;5076327;28;20033;-73
2022/11/22 05:13:37;;;;;;;4.57;2.72;;;6.40;99.90;;;;;;5063705;28;20032;-73
2022/11/22 05:16:05;;;;;;;6.07;3.88;;;6.40;99.90;;;;;;5078480;28;20106;-74
2022/11/22 05:18:31;;;;;;;4.65;3.20;;;6.40;99.90;;;;;;5070128;28;20158;-73
2022/11/22 05:20:59;;;;;;;4.13;3.20;;;6.50;99.90;;;;;;5078037;28;20024;-74
2022/11/22 05:26:10;;;;;;;4.43;3.92;;;6.50;99.90;;;;;;5072188;28;20035;-74
2022/11/22 05:28:37;;;;;;;6.05;3.10;;;6.50;99.90;;;;;;5068813;28;20445;-74
2022/11/22 05:31:13;;;;;;;8.60;3.20;;;6.60;99.90;;;;;;5065352;28;20477;-74
2022/11/22 05:33:41;;;;;;;3.65;3.35;;;6.60;99.90;;;;;;5062552;28;20025;-74
2022/11/22 05:36:08;;;;;;;2.92;2.72;;;6.60;99.90;;;;;;5076141;28;20484;-74
2022/11/22 05:38:34;;;;;;;3.53;3.00;;;6.60;99.90;;;;;;5063861;28;20050;-74
2022/11/22 05:41:10;;;;;;;3.58;3.25;;;6.60;99.90;;;;;;5077467;28;20052;-74
2022/11/22 05:43:36;;;;;;;6.85;3.40;;;6.60;99.90;;;;;;5070741;28;20028;-73
2022/11/22 05:46:10;;;;;;;3.40;2.90;;;6.60;99.90;;;;;;5077213;28;20435;-74
2022/11/22 05:48:37;;;;;;;5.68;3.90;;;6.50;99.90;;;;;;5064626;28;20021;-74
2022/11/22 05:51:09;;;;;;;5.00;3.08;;;6.50;99.90;;;;;;5072360;28;20037;-74
2022/11/22 05:53:36;;;;;;;4.30;3.00;;;6.50;99.90;;;;;;5061145;28;20094;-74
2022/11/22 05:56:15;;;;;;;4.20;3.30;;;6.50;99.90;;;;;;5073899;28;20552;-75
2022/11/22 05:58:41;;;;;;;7.47;3.45;;;6.50;99.90;;;;;;5069892;28;20021;-73
2022/11/22 06:01:10;;;;;;;4.07;3.17;;;6.50;99.90;;;;;;5063821;28;20047;-74
2022/11/22 06:03:37;;;;;;;3.83;3.20;;;6.60;99.90;;;;;;5068100;28;20486;-73
2022/11/22 06:06:04;;;;;;;7.10;3.20;;;6.60;99.90;;;;;;5057806;28;20116;-73
2022/11/22 06:08:32;;;;;;;4.63;3.15;;;6.60;99.90;;;;;;5070875;28;20106;-74
2022/11/22 06:11:12;;;;;;;4.38;3.42;;;6.60;99.90;;;;;;5072606;28;20029;-73
2022/11/22 06:13:40;;;;;;;3.80;3.50;;;6.60;99.90;;;;;;5064966;28;20032;-73
2022/11/22 06:16:07;;;;;;;9.20;3.75;;;6.70;99.90;;;;;;5070139;28;20043;-74
2022/11/22 06:18:33;;;;;;;4.93;3.30;;;6.70;99.90;;;;;;5064474;28;20519;-73
2022/11/22 06:21:00;;;;;;;4.30;3.40;;;6.70;99.90;;;;;;5075889;28;20035;-73
2022/11/22 06:23:27;;;;;;;5.05;3.47;;;6.60;99.90;;;;;;5063983;28;20116;-74
2022/11/22 06:26:02;;;;;;;3.70;3.30;;;6.70;99.90;;;;;;5061453;28;20024;-74
2022/11/22 06:28:29;;;;;;;5.65;3.80;;;6.70;99.90;;;;;;5065109;28;20025;-74
2022/11/22 06:31:05;;;;;;;3.45;3.15;;;6.60;99.90;;;;;;5072867;28;20031;-74
2022/11/22 06:33:32;;;;;;;6.85;3.88;;;6.50;99.90;;;;;;5065481;28;20392;-74
2022/11/22 06:36:06;;;;;;;4.65;3.45;;;6.50;99.90;;;;;;5075074;28;20498;-74
2022/11/22 06:38:32;;;;;;;6.40;3.97;;;6.50;99.90;;;;;;5064014;28;20112;-73
2022/11/22 06:41:02;;;;;;;4.88;3.38;;;6.40;99.90;;;;;;5075539;28;20397;-74
2022/11/22 06:43:29;;;;;;;3.92;3.00;;;6.40;99.90;;;;;;5061378;28;20504;-73
2022/11/22 06:45:56;;;;;;;4.25;3.42;;;6.40;99.90;;;;;;5065453;28;20378;-76
2022/11/22 06:48:23;;;;;;;5.95;3.50;;;6.40;99.90;;;;;;5066112;28;20090;-76
2022/11/22 06:50:49;;;;;;;5.85;4.35;;;6.50;99.90;;;;;;5072152;28;20434;-75
2022/11/22 06:53:14;;;;;;;7.28;3.25;;;6.60;99.90;;;;;;5069474;28;20029;-77
2022/11/22 06:55:40;;;;;;;3.75;3.25;;;6.60;99.90;;;;;;5074263;28;20571;-74
2022/11/22 06:58:06;;;;;;;4.30;3.10;;;6.60;99.90;;;;;;5064029;28;20021;-74
2022/11/22 07:00:32;;;;;;;4.55;3.25;;;6.70;99.90;;;;;;5071294;28;20086;-74
2022/11/22 07:02:58;;;;;;;3.35;3.10;;;6.70;99.90;;;;;;5047878;28;20021;-78
2022/11/22 07:05:24;;;;;;;3.92;3.30;;;6.70;99.90;;;;;;5073882;28;20050;-78
2022/11/22 07:07:49;;;;;;;3.42;3.10;;;6.60;99.90;;;;;;5056658;28;20547;-77
2022/11/22 07:10:15;;;;;;;6.03;3.40;;;6.60;99.90;;;;;;5063585;28;20397;-77
2022/11/22 07:12:41;;;;;;;5.70;3.20;;;6.60;99.90;;;;;;5061749;28;20051;-77
2022/11/22 07:15:07;;;;;;;8.20;3.70;;;6.60;99.90;;;;;;5058570;28;20025;-77
2022/11/22 07:17:33;;;;;;;3.60;3.30;;;6.60;99.90;;;;;;5066360;28;20024;-74
2022/11/22 07:19:59;;;;;;;3.60;3.30;;;6.60;99.90;;;;;;5068488;28;20112;-74
2022/11/22 07:22:25;;;;;;;5.13;3.50;;;6.60;99.90;;;;;;5067517;28;20029;-74
2022/11/22 07:24:50;;;;;;;7.10;3.83;;;6.60;99.90;;;;;;5074975;28;20492;-74
2022/11/22 07:27:16;;;;;;;4.00;3.60;;;6.50;99.90;;;;;;5068089;28;20025;-76
2022/11/22 07:29:42;;;;;;;5.65;3.50;;;6.50;99.90;;;;;;5069762;28;20024;-76
2022/11/22 07:32:08;;;;;;;4.57;3.00;;;6.50;99.90;;;;;;5063964;28;20025;-77
2022/11/22 07:34:34;;;;;;;3.97;3.58;;;6.60;99.90;;;;;;5084402;28;20073;-76
2022/11/22 07:36:59;;;;;;;3.15;2.88;;;6.60;99.90;;;;;;5074521;28;20085;-78
2022/11/22 07:39:25;;;;;;;7.05;3.58;;;6.60;99.90;;;;;;5061701;28;20025;-77
2022/11/22 07:41:51;;;;;;;5.38;3.50;;;6.60;99.90;;;;;;5065641;28;20083;-78
2022/11/22 07:44:17;;;;;;;3.33;3.08;;;6.60;99.90;;;;;;5064207;28;20040;-77
2022/11/22 07:46:43;;;;;;;3.65;2.80;;;6.60;99.90;;;;;;5067421;28;20100;-76
2022/11/22 07:49:09;;;;;;;3.30;2.97;;;6.50;99.90;;;;;;5067115;28;20036;-76
2022/11/22 07:51:34;;;;;;;3.33;3.08;;;6.50;99.90;;;;;;5062221;28;20074;-76
2022/11/22 07:54:00;;;;;;;3.55;3.25;;;6.50;99.90;;;;;;5065871;28;20082;-76
2022/11/22 07:56:26;;;;;;;5.47;3.10;;;6.40;99.90;;;;;;5059138;28;20482;-76
2022/11/22 07:58:52;;;;;;;3.50;3.20;;;6.40;99.90;;;;;;5071521;28;20160;-75
2022/11/22 08:01:18;;;;;;;4.38;3.97;;;6.40;99.90;;;;;;5066512;28;20025;-75
2022/11/22 08:03:45;;;;;;;5.55;3.50;;;6.40;99.90;;;;;;5070651;28;20025;-76
2022/11/22 08:06:12;;;;;;;4.00;3.28;;;6.40;99.90;;;;;;5076827;28;20044;-78
2022/11/22 08:08:38;;;;;;;7.25;3.50;;;6.40;99.90;;;;;;5071457;28;20036;-77
2022/11/22 08:11:05;;;;;;;5.65;5.07;;;6.40;99.90;;;;;;5074708;28;20040;-75
2022/11/22 08:13:32;;;;;;;3.25;3.00;;;6.40;99.90;;;;;;5073562;28;20025;-75
2022/11/22 08:16:05;;;;;;;4.45;3.53;;;6.40;99.90;;;;;;5065602;28;20032;-74
2022/11/22 08:18:32;;;;;;;6.35;3.58;;;6.40;99.90;;;;;;5066107;28;20029;-74
2022/11/22 08:21:06;;;;;;;4.47;3.53;;;6.40;99.90;;;;;;5070361;28;20108;-75
2022/11/22 08:23:33;;;;;;;5.10;3.40;;;6.50;99.90;;;;;;5073774;28;20055;-75
2022/11/22 08:25:59;;;;;;;4.15;3.22;;;6.50;99.90;;;;;;5076321;28;20044;-77
2022/11/22 08:28:25;;;;;;;4.45;3.63;;;6.60;99.90;;;;;;5068996;28;20036;-75
2022/11/22 08:30:51;;;;;;;6.13;3.60;;;6.70;99.90;;;;;;5075643;28;20097;-75
2022/11/22 08:33:17;;;;;;;3.50;3.20;;;6.70;99.90;;;;;;5066452;28;20025;-76
2022/11/22 08:35:42;;;;;;;4.85;4.10;;;6.90;99.90;;;;;;5078488;28;20020;-75
2022/11/22 08:38:08;;;;;;;3.30;3.10;;;6.90;99.90;;;;;;5064119;28;20075;-76
2022/11/22 08:40:34;;;;;;;5.28;4.10;;;7.10;99.90;;;;;;5065501;28;20016;-75
2022/11/22 08:43:00;;;;;;;4.80;3.10;;;7.20;99.90;;;;;;5067097;28;20512;-76
2022/11/22 08:45:26;;;;;;;6.35;3.13;;;7.30;99.90;;;;;;5079726;28;20100;-75
2022/11/22 08:47:51;;;;;;;5.47;4.97;;;7.50;99.90;;;;;;5066234;28;20013;-74
2022/11/22 08:50:18;;;;;;;11.73;5.10;;;7.50;99.90;;;;;;5077630;28;20407;-76
2022/11/22 08:52:44;;;;;;;4.05;3.65;;;7.60;99.90;;;;;;5075931;28;20028;-77
2022/11/22 08:55:09;;;;;;;3.22;2.90;;;7.60;99.90;;;;;;5060236;28;20025;-77
2022/11/22 08:57:35;;;;;;;3.03;2.78;;;7.70;99.90;;;;;;5073427;28;20048;-76
2022/11/22 09:00:01;;;;;;;4.93;3.35;;;7.70;99.90;;;;;;5066072;28;20016;-77
2022/11/22 09:02:27;;;;;;;5.57;3.40;;;7.70;99.90;;;;;;5072711;28;20497;-77
2022/11/22 09:04:53;;;;;;;10.40;3.55;;;7.70;99.90;;;;;;5074403;28;20365;-78
2022/11/22 09:07:18;;;;;;;10.50;5.07;;;7.70;99.90;;;;;;5073675;28;20028;-75
2022/11/22 09:09:44;;;;;;;11.25;5.15;;;7.80;99.90;;;;;;5074323;28;20032;-76
2022/11/22 09:12:10;;;;;;;6.95;4.07;;;8.00;99.90;;;;;;5076895;28;20123;-77
2022/11/22 09:14:36;;;;;;;15.25;6.88;;;8.10;99.90;;;;;;5060368;28;20395;-74
2022/11/22 09:17:02;;;;;;;10.10;4.40;;;8.20;99.90;;;;;;5079260;28;20085;-76
2022/11/22 09:19:27;;;;;;;11.60;3.40;;;8.20;99.90;;;;;;5072959;28;20071;-75
2022/11/22 09:21:53;;;;;;;5.60;3.60;;;8.20;99.90;;;;;;5074315;28;20032;-75
2022/11/22 09:24:19;;;;;;;4.13;3.45;;;8.30;99.90;;;;;;5072641;28;20044;-79
2022/11/22 09:26:45;;;;;;;10.82;3.53;;;8.30;99.90;;;;;;5087274;28;20031;-75
2022/11/22 09:29:11;;;;;;;5.88;3.38;;;8.30;99.90;;;;;;5073485;28;20032;-75
2022/11/22 09:31:37;;;;;;;6.20;3.47;;;8.30;99.90;;;;;;5074214;28;20025;-75
2022/11/22 09:34:03;;;;;;;4.47;2.80;;;8.30;99.90;;;;;;5072435;28;20538;-75
2022/11/22 09:36:29;;;;;;;7.82;4.20;;;8.30;99.90;;;;;;5073021;28;20436;-78
2022/11/22 09:38:55;;;;;;;6.18;2.97;;;8.20;99.90;;;;;;5064439;28;20017;-76
2022/11/22 09:41:48;;;;;;;5.85;3.38;;;8.30;99.90;;;;;;5067978;28;20472;-76
2022/11/22 09:44:35;;;;;;;7.25;3.15;;;8.30;99.90;;;;;;5075281;28;20028;-76
2022/11/22 09:47:07;;;;;;;9.20;3.47;;;8.40;99.90;;;;;;5066119;28;20029;-80
2022/11/22 09:49:38;;;;;;;6.07;3.58;;;8.40;99.90;;;;;;5064162;28;20488;-77
2022/11/22 09:52:09;;;;;;;;;;;8.50;99.90;;;;;;5064157;28;20063;-75
2022/11/22 09:54:45;;;;;;;7.88;3.33;;;8.60;99.90;;;;;;5069628;28;20285;-76
2022/11/22 09:57:36;;;;;;;5.53;3.15;;;8.60;99.90;;;;;;5065564;28;20021;-79
2022/11/22 10:00:17;;;;;;;4.40;3.95;;;8.70;99.90;;;;;;5070175;28;20044;-77
2022/11/22 10:02:47;;;;;;;;;;;8.90;99.90;;;;;;5062474;28;20036;-77
2022/11/22 10:05:23;;;;;;;3.30;3.00;;;9.10;99.90;;;;;;5061360;28;19911;-77
2022/11/22 10:08:35;;;;;;;4.50;3.10;;;9.00;99.90;;;;;;5071538;28;20063;-76
2022/11/22 10:11:04;;;;;;;7.00;3.25;;;9.00;99.90;;;;;;5068355;28;20028;-76
2022/11/22 10:13:42;;;;;;;8.05;3.28;;;9.00;99.90;;;;;;5069464;28;20032;-77
2022/11/22 10:16:46;;;;;;;5.03;3.58;;;8.90;99.90;;;;;;5072070;28;20063;-76
2022/11/22 10:19:17;;;;;;;8.13;2.97;;;9.00;99.90;;;;;;5067242;28;20035;-76
2022/11/22 10:21:46;;;;;;;7.65;3.10;;;9.00;99.90;;;;;;5074820;28;20108;-77
2022/11/22 10:24:15;;;;;;;5.07;3.10;;;9.10;99.90;;;;;;5060933;28;20055;-76
2022/11/22 10:26:41;;;;;;;6.53;3.28;;;9.10;99.90;;;;;;5071773;28;20108;-76
2022/11/22 10:29:34;;;;;;;4.78;2.65;;;9.10;99.90;;;;;;5069681;28;20036;-76
2022/11/22 10:32:27;;;;;;;3.83;2.53;;;9.10;99.90;;;;;;5065910;28;20029;-76
2022/11/22 10:35:12;;;;;;;5.05;2.40;;;9.10;99.90;;;;;;5088490;28;20091;-78
2022/11/22 10:38:15;;;;;;;6.32;2.47;;;9.10;99.90;;;;;;5066277;28;20489;-78
2022/11/22 10:41:08;;;;;;;3.30;2.67;;;9.10;99.90;;;;;;5072978;28;20025;-76
2022/11/22 10:44:14;;;;;;;4.88;3.15;;;9.10;99.90;;;;;;5069638;28;20159;-77
2022/11/22 10:47:12;;;;;;;4.85;2.90;;;9.10;99.90;;;;;;5070412;28;20021;-76
2022/11/22 10:49:41;;;;;;;6.57;3.30;;;9.10;99.90;;;;;;5073573;28;20036;-76
2022/11/22 10:52:31;;;;;;;5.22;3.72;;;9.10;99.90;;;;;;5066271;28;20029;-76
2022/11/22 10:55:17;;;;;;;3.40;2.90;;;9.20;99.90;;;;;;5084204;28;20088;-78
2022/11/22 10:58:01;;;;;;;6.07;2.90;;;9.20;99.90;;;;;;5062052;28;20036;-75
2022/11/22 11:00:30;;;;;;;7.97;3.38;;;9.10;99.90;;;;;;5073978;28;20081;-75
2022/11/22 11:03:11;;;;;;;5.25;3.95;;;9.20;99.90;;;;;;5067603;28;20079;-75
2022/11/22 11:05:50;;;;;;;4.30;2.85;;;9.30;99.90;;;;;;5069125;28;20027;-75
2022/11/22 11:08:48;;;;;;;49.28;16.80;;;9.30;99.90;;;;;;5065243;28;20017;-76
2022/11/22 11:11:15;;;;;;;3.92;2.70;;;9.40;99.90;;;;;;5070588;28;20404;-76
2022/11/22 11:13:49;;;;;;;6.78;3.47;;;9.40;99.90;;;;;;5062605;28;20066;-76
2022/11/22 11:16:20;;;;;;;9.40;4.05;;;9.30;99.90;;;;;;5071811;28;20020;-76
2022/11/22 11:19:03;;;;;;;5.43;2.78;;;9.30;99.90;;;;;;5069316;28;20495;-76
2022/11/22 11:21:29;;;;;;;12.15;3.15;;;9.30;99.90;;;;;;5073552;28;20033;-78
2022/11/22 11:23:55;;;;;;;4.50;2.70;;;9.30;99.90;;;;;;5064864;28;20458;-75
2022/11/22 11:26:21;;;;;;;15.98;8.63;;;9.30;99.90;;;;;;5071731;28;20141;-74
2022/11/22 11:28:46;;;;;;;8.48;3.03;;;9.30;99.90;;;;;;5072306;28;20024;-75
2022/11/22 11:31:12;;;;;;;3.13;2.50;;;9.30;99.90;;;;;;5066043;28;20032;-77
2022/11/22 11:33:41;;;;;;;2.65;2.45;;;9.30;99.90;;;;;;5061914;28;20029;-75
2022/11/22 11:36:23;;;;;;;4.95;2.78;;;9.30;99.90;;;;;;5061345;28;20036;-79
2022/11/22 11:38:55;;;;;;;6.57;3.00;;;9.40;99.90;;;;;;5064027;28;20055;-77
2022/11/22 11:41:27;;;;;;;5.07;3.03;;;9.40;99.90;;;;;;5058833;28;20028;-75
2022/11/22 11:44:04;;;;;;;5.15;2.70;;;9.40;99.90;;;;;;5060750;28;20546;-74
2022/11/22 11:46:39;;;;;;;5.38;3.13;;;9.40;99.90;;;;;;5074485;28;20029;-75
2022/11/22 11:49:16;;;;;;;29.73;11.73;;;9.40;99.90;;;;;;5070578;28;20447;-76
2022/11/22 11:51:45;;;;;;;8.35;3.20;;;9.40;99.90;;;;;;5065362;28;20020;-76
2022/11/22 11:54:14;;;;;;;3.50;2.92;;;9.40;99.90;;;;;;5068668;28;20017;-76
2022/11/22 11:56:45;;;;;;;3.20;2.60;;;9.40;99.90;;;;;;5073252;28;20025;-77
2022/11/22 11:59:15;;;;;;;13.75;6.65;;;9.40;99.90;;;;;;5065122;28;20029;-75
2022/11/22 12:02:20;;;;;;;7.38;3.58;;;9.50;99.90;;;;;;5068326;28;20021;-78
2022/11/22 12:05:02;;;;;;;7.93;4.13;;;9.50;99.90;;;;;;5054867;28;20068;-77
2022/11/22 12:07:34;;;;;;;7.78;3.08;;;9.40;99.90;;;;;;5068098;28;20119;-77
2022/11/22 12:10:02;;;;;;;6.57;3.30;;;9.40;99.90;;;;;;5072151;28;20029;-76
2022/11/22 12:12:40;;;;;;;2.60;2.35;;;9.30;99.90;;;;;;5069611;28;20031;-74
2022/11/22 12:15:19;;;;;;;5.93;2.58;;;9.30;99.90;;;;;;5074295;28;20477;-78
2022/11/22 12:17:55;;;;;;;7.40;3.53;;;9.30;99.90;;;;;;5069768;28;20025;-76
2022/11/22 12:20:33;;;;;;;4.20;2.90;;;9.20;99.90;;;;;;5085311;28;20024;-76
2022/11/22 12:23:20;;;;;;;4.60;2.85;;;9.10;99.90;;;;;;5068582;28;20048;-76
2022/11/22 12:25:47;;;;;;;9.57;3.63;;;9.10;99.90;;;;;;5059283;28;20048;-75
2022/11/22 12:28:27;;;;;;;12.95;6.55;;;9.10;99.90;;;;;;5062712;28;20025;-77
2022/11/22 12:31:20;;;;;;;;;;;9.20;99.90;;;;;;5055657;28;20021;-76
2022/11/22 12:33:52;;;;;;;11.45;3.40;;;9.20;99.90;;;;;;5064306;28;19959;-75
2022/11/22 12:36:35;;;;;;;8.00;3.13;;;9.20;99.90;;;;;;5072280;28;20430;-75
2022/11/22 12:39:03;;;;;;;6.30;2.55;;;9.20;99.90;;;;;;5061388;28;20075;-76
2022/11/22 12:41:31;;;;;;;6.40;3.00;;;9.20;99.90;;;;;;5068688;28;20033;-75
2022/11/22 12:44:01;;;;;;;9.98;3.13;;;9.20;99.90;;;;;;5070456;28;20029;-75
2022/11/22 12:46:41;;;;;;;6.68;3.38;;;9.20;99.90;;;;;;5073202;28;20058;-75
2022/11/22 12:49:12;;;;;;;7.30;2.92;;;9.20;99.90;;;;;;5064830;28;20048;-76
2022/11/22 12:52:09;;;;;;;6.45;2.85;;;9.30;99.90;;;;;;5075020;28;20042;-74
2022/11/22 12:54:55;;;;;;;4.28;3.08;;;9.30;99.90;;;;;;5066375;28;20032;-75
2022/11/22 12:57:41;;;;;;;4.22;3.20;;;9.30;99.90;;;;;;5077316;28;20035;-74
2022/11/22 13:00:21;;;;;;;6.80;4.07;;;9.30;99.90;;;;;;5067553;28;20469;-75
2022/11/22 13:03:04;;;;;;;8.60;3.35;;;9.20;99.90;;;;;;5073405;28;20029;-74
2022/11/22 13:05:42;;;;;;;5.20;3.38;;;9.20;99.90;;;;;;5064219;28;20048;-75
2022/11/22 13:08:16;;;;;;;6.28;3.00;;;9.20;99.90;;;;;;5071626;28;20040;-75
2022/11/22 13:11:15;;;;;;;9.65;3.33;;;9.20;99.90;;;;;;5073403;28;20086;-75
2022/11/22 13:13:48;;;;;;;10.20;3.70;;;9.20;99.90;;;;;;5069503;28;20024;-75
2022/11/22 13:16:14;;;;;;;9.07;3.30;;;9.10;99.90;;;;;;5072903;28;20028;-76
2022/11/22 13:18:44;;;;;;;14.73;5.78;;;9.20;99.90;;;;;;5075150;28;20024;-75
2022/11/22 13:21:29;;;;;;;7.13;3.45;;;9.20;99.90;;;;;;5077742;28;20457;-75
2022/11/22 13:24:22;;;;;;;8.02;4.50;;;9.20;99.90;;;;;;5070628;28;20048;-75
2022/11/22 13:26:59;;;;;;;23.55;13.65;;;9.10;99.90;;;;;;5077502;28;20016;-75